Time;durP1;ratioP1;P1;durP2;ratioP2;P2;SDS_P1;SDS_P2;PMS_P1;PMS_P2;Temp;Humidity;BMP_temperature;BMP_pressure;BME280_temperature;BME280_humidity;BME280_pressure;Samples;Min_cycle;Max_cycle;Signal;HPM_P1;HPM_P2
2021/04/12 00:00:28;;;;;;;18.95;11.53;;;;;;;9.31;43.71;97585.01;1716429;82;21615;-79
2021/04/12 00:03:24;;;;;;;21.05;11.73;;;;;;;9.34;43.85;97586.58;1725695;83;21134;-79
2021/04/12 00:06:12;;;;;;;25.40;13.03;;;;;;;9.34;43.93;97585.27;1726769;83;21158;-78
2021/04/12 00:09:00;;;;;;;21.17;12.80;;;;;;;9.35;44.05;97585.64;1712691;83;21288;-78
2021/04/12 00:12:03;;;;;;;20.55;11.93;;;;;;;9.34;43.87;97576.89;1704019;83;21144;-79
2021/04/12 00:14:39;;;;;;;21.27;11.55;;;;;;;9.34;43.89;97568.99;1670341;84;21189;-78
2021/04/12 00:17:19;;;;;;;;;;;;;;;9.34;43.81;97568.17;1731075;83;21165;-79
2021/04/12 00:19:57;;;;;;;17.15;10.50;;;;;;;9.32;44.69;97568.73;1699465;84;20134;-79
2021/04/12 00:22:44;;;;;;;18.73;9.90;;;;;;;9.32;44.04;97572.23;1699512;84;21296;-79
2021/04/12 00:25:49;;;;;;;17.92;10.80;;;;;;;9.35;43.73;97566.73;1700888;83;21310;-79
2021/04/12 00:28:34;;;;;;;18.35;9.43;;;;;;;9.40;43.79;97564.28;1716495;84;21161;-79
2021/04/12 00:31:16;;;;;;;19.15;9.78;;;;;;;9.45;43.89;97567.42;1777886;80;21195;-77
2021/04/12 00:33:54;;;;;;;19.25;10.28;;;;;;;9.47;43.93;97559.79;1720126;83;21313;-79
2021/04/12 00:37:03;;;;;;;17.90;10.75;;;;;;;9.52;43.89;97567.37;1716704;84;21276;-79
2021/04/12 00:39:51;;;;;;;21.48;9.80;;;;;;;9.54;43.95;97565.48;1594507;90;21201;-78
2021/04/12 00:42:50;;;;;;;22.77;10.70;;;;;;;9.63;44.38;97560.07;1840102;77;22642;-78
2021/04/12 00:45:44;;;;;;;17.20;9.28;;;;;;;9.60;44.16;97556.33;1829223;78;21685;-77
2021/04/12 00:48:35;;;;;;;18.10;10.28;;;;;;;9.62;43.92;97557.06;1705552;83;21158;-78
2021/04/12 00:51:48;;;;;;;17.00;9.48;;;;;;;9.64;44.01;97559.12;1719880;83;21280;-78
2021/04/12 00:55:01;;;;;;;12.23;7.50;;;;;;;9.66;44.06;97556.75;1676921;86;21157;-78
2021/04/12 00:57:40;;;;;;;11.78;7.45;;;;;;;9.66;43.89;97562.02;1737903;81;21126;-79
2021/04/12 01:00:18;;;;;;;13.60;7.92;;;;;;;9.65;43.83;97564.77;1715995;81;21255;-78
2021/04/12 01:03:18;;;;;;;14.93;8.23;;;;;;;9.65;43.95;97560.81;1757090;81;21677;-78
2021/04/12 01:06:35;;;;;;;16.32;8.50;;;;;;;9.65;44.02;97561.64;1746645;81;21307;-79
2021/04/12 01:09:48;;;;;;;13.45;8.45;;;;;;;9.65;43.98;97560.33;1708774;81;21157;-78
2021/04/12 01:12:42;;;;;;;13.70;7.67;;;;;;;9.65;43.88;97559.02;1744380;81;21282;-79
2021/04/12 01:15:47;;;;;;;12.20;5.85;;;;;;;9.66;43.96;97556.75;1698705;84;21164;-78
2021/04/12 01:19:02;;;;;;;15.72;8.70;;;;;;;9.70;43.80;97556.06;1706070;84;21172;-79
2021/04/12 01:22:10;;;;;;;18.45;9.20;;;;;;;9.64;44.54;97558.64;1639410;87;21196;-78
2021/04/12 01:24:57;;;;;;;20.48;10.10;;;;;;;9.60;44.47;97558.95;1639459;87;21140;-77
2021/04/12 01:27:48;;;;;;;18.52;9.53;;;;;;;9.57;46.09;97556.06;1618899;87;21172;-78
2021/04/12 01:31:05;;;;;;;17.52;9.78;;;;;;;9.35;44.80;97511.97;1639480;87;21168;-80
2021/04/12 01:34:01;;;;;;;21.33;10.90;;;;;;;9.55;44.69;97552.70;1625871;87;21258;-78
2021/04/12 01:36:58;;;;;;;17.62;9.18;;;;;;;9.53;45.20;97550.18;1612105;89;21172;-78
2021/04/12 01:39:43;;;;;;;16.20;9.48;;;;;;;9.53;44.78;97546.23;1611948;89;21232;-78
2021/04/12 01:43:09;;;;;;;14.30;8.68;;;;;;;9.55;44.61;97543.97;1635999;87;21161;-78
2021/04/12 01:46:17;;;;;;;15.60;9.13;;;;;;;9.58;44.56;97545.91;1639267;87;21179;-77
2021/04/12 01:49:12;;;;;;;16.02;9.20;;;;;;;9.61;44.57;97543.54;1639302;87;21156;-78
2021/04/12 01:52:00;;;;;;;17.32;8.80;;;;;;;9.63;44.59;97541.65;1639265;87;21173;-78
2021/04/12 01:54:50;;;;;;;17.25;9.30;;;;;;;9.66;44.63;97542.27;1639019;87;21192;-78
2021/04/12 01:58:06;;;;;;;16.10;8.78;;;;;;;9.71;44.64;97541.09;1614968;86;21227;-76
2021/04/12 02:01:04;;;;;;;16.17;9.40;;;;;;;9.73;44.34;97547.96;1584780;90;21244;-78
2021/04/12 02:03:57;;;;;;;13.35;7.17;;;;;;;9.74;44.09;97545.70;1636270;87;21601;-78
2021/04/12 02:06:36;;;;;;;14.23;7.87;;;;;;;9.76;44.12;97544.27;1651025;86;21156;-79
2021/04/12 02:09:27;;;;;;;14.05;8.35;;;;;;;9.76;44.28;97545.58;1669609;86;21593;-79
2021/04/12 02:12:17;;;;;;;14.90;7.20;;;;;;;9.75;44.52;97542.58;1670859;86;21116;-77
2021/04/12 02:14:59;;;;;;;15.38;8.60;;;;;;;9.71;44.91;97545.91;1647629;87;21297;-78
2021/04/12 02:18:02;;;;;;;20.77;11.63;;;;;;;9.63;44.89;97542.47;1647136;87;21162;-78
2021/04/12 02:20:53;;;;;;;17.73;10.60;;;;;;;9.58;45.04;97551.63;1650443;86;21226;-79
2021/04/12 02:23:49;;;;;;;23.35;11.45;;;;;;;9.53;44.99;97546.69;1649820;87;21310;-78
2021/04/12 02:26:24;;;;;;;17.73;11.22;;;;;;;9.50;44.92;97545.11;1629386;86;21148;-78
2021/04/12 02:29:18;;;;;;;16.90;9.35;;;;;;;9.51;44.90;97544.17;1677402;86;21154;-78
2021/04/12 02:32:12;;;;;;;19.20;10.05;;;;;;;9.54;44.80;97543.11;1677446;86;21281;-78
2021/04/12 02:35:05;;;;;;;15.08;9.03;;;;;;;9.53;45.00;97546.69;1677126;84;21146;-78
2021/04/12 02:38:04;;;;;;;14.75;8.60;;;;;;;9.50;44.93;97545.11;1677506;86;21703;-78
2021/04/12 02:41:12;;;;;;;19.17;10.23;;;;;;;9.50;44.88;97545.60;1592240;90;21213;-78
2021/04/12 02:43:54;;;;;;;27.90;10.10;;;;;;;9.49;44.89;97546.06;1592782;90;21710;-77
2021/04/12 02:46:53;;;;;;;15.13;10.03;;;;;;;9.49;44.94;97548.69;1592340;90;21241;-77
2021/04/12 02:49:32;;;;;;;20.57;10.78;;;;;;;9.48;45.09;97551.44;1592141;90;21172;-78
2021/04/12 02:52:22;;;;;;;15.18;9.78;;;;;;;9.46;45.06;97548.06;1592287;90;21213;-79
2021/04/12 02:55:29;;;;;;;15.75;9.75;;;;;;;9.47;45.09;97547.12;1592189;90;21616;-78
2021/04/12 02:58:31;;;;;;;19.95;9.53;;;;;;;9.47;45.05;97545.80;1591733;90;21204;-78
2021/04/12 03:01:16;;;;;;;17.48;9.95;;;;;;;9.50;44.90;97549.06;1592316;90;21656;-79
2021/04/12 03:03:52;;;;;;;15.15;7.97;;;;;;;9.49;45.25;97547.37;1591997;88;21166;-78
2021/04/12 03:06:44;;;;;;;18.90;10.13;;;;;;;9.48;45.10;97542.23;1590907;90;21193;-79
2021/04/12 03:09:37;;;;;;;17.45;10.25;;;;;;;9.46;45.09;97546.30;1592236;90;21594;-79
2021/04/12 03:12:44;;;;;;;15.58;9.35;;;;;;;9.44;45.21;97543.38;1592197;90;21256;-78
2021/04/12 03:15:38;;;;;;;15.57;9.60;;;;;;;9.42;45.20;97545.30;1592323;90;21185;-78
2021/04/12 03:18:30;;;;;;;16.23;9.65;;;;;;;9.38;45.27;97544.17;1644430;85;21171;-78
2021/04/12 03:21:30;;;;;;;17.60;9.23;;;;;;;9.40;45.23;97543.23;1674287;84;21158;-79
2021/04/12 03:24:26;;;;;;;18.27;9.45;;;;;;;9.37;45.25;97545.12;1667114;86;21152;-79
2021/04/12 03:27:35;;;;;;;17.12;10.25;;;;;;;9.34;45.19;97540.05;1650624;85;21171;-78
2021/04/12 03:30:38;;;;;;;16.07;8.55;;;;;;;9.34;45.16;97538.73;1651590;85;21150;-79
2021/04/12 03:33:37;;;;;;;21.90;10.55;;;;;;;9.35;45.10;97537.80;1652513;84;21175;-79
2021/04/12 03:36:55;;;;;;;16.48;9.53;;;;;;;9.36;45.39;97539.48;1695182;83;21155;-79
2021/04/12 03:39:40;;;;;;;20.15;10.43;;;;;;;9.37;45.26;97537.22;1703953;84;21156;-79
2021/04/12 03:42:37;;;;;;;17.87;9.20;;;;;;;9.42;45.13;97542.66;1672956;83;21108;-78
2021/04/12 03:45:15;;;;;;;25.20;9.75;;;;;;;9.46;45.36;97540.17;1746442;82;21128;-79
2021/04/12 03:48:13;;;;;;;17.20;9.78;;;;;;;9.47;45.40;97541.86;1746460;82;21117;-79
2021/04/12 03:51:00;;;;;;;16.55;8.10;;;;;;;9.47;45.39;97539.22;1739692;82;21140;-77
2021/04/12 03:54:07;;;;;;;16.85;9.25;;;;;;;9.49;45.42;97543.92;1724452;83;21573;-76
2021/04/12 03:57:00;;;;;;;15.63;8.80;;;;;;;9.49;45.41;97543.92;1711993;83;21132;-78
2021/04/12 03:59:53;;;;;;;17.40;8.45;;;;;;;9.48;45.25;97546.17;1698154;83;21203;-79
2021/04/12 04:02:45;;;;;;;22.45;10.32;;;;;;;9.47;45.32;97541.86;1688440;83;21151;-79
2021/04/12 04:05:36;;;;;;;18.85;9.15;;;;;;;9.43;45.46;97545.63;1725692;83;21175;-79
2021/04/12 04:08:34;;;;;;;20.40;10.05;;;;;;;9.42;45.46;97543.98;1719388;82;21145;-79
2021/04/12 04:11:19;;;;;;;19.45;10.53;;;;;;;9.42;45.42;97543.98;1697064;83;21160;-79
2021/04/12 04:14:16;;;;;;;19.30;9.70;;;;;;;9.42;45.54;97545.30;1696560;85;21164;-78
2021/04/12 04:16:52;;;;;;;20.77;9.50;;;;;;;9.42;45.63;97546.12;1731440;82;21152;-79
2021/04/12 04:20:09;;;;;;;14.45;9.40;;;;;;;9.46;45.60;97544.12;1717077;83;21597;-78
2021/04/12 04:23:07;;;;;;;17.85;9.33;;;;;;;9.51;45.53;97545.98;1719521;82;21229;-78
2021/04/12 04:26:07;;;;;;;19.25;9.65;;;;;;;9.56;45.48;97550.44;1692460;82;21156;-77
2021/04/12 04:29:04;;;;;;;19.95;10.38;;;;;;;9.61;45.53;97554.89;1697251;83;21607;-77
2021/04/12 04:32:06;;;;;;;18.42;10.32;;;;;;;9.67;45.52;97558.44;1668116;85;21563;-77
2021/04/12 04:34:58;;;;;;;19.85;11.05;;;;;;;9.75;45.37;97557.88;1718618;83;21153;-78
2021/04/12 04:37:49;;;;;;;24.30;10.50;;;;;;;9.84;45.33;97557.73;1695436;85;21150;-78
2021/04/12 04:40:44;;;;;;;20.15;11.10;;;;;;;9.94;45.30;97557.91;1694909;84;21145;-79
2021/04/12 04:43:39;;;;;;;23.80;10.38;;;;;;;10.04;45.24;97558.12;1695685;85;21588;-77
2021/04/12 04:46:57;;;;;;;22.30;10.72;;;;;;;10.14;45.16;97561.30;1722997;83;21599;-80
2021/04/12 04:50:25;;;;;;;19.30;10.50;;;;;;;10.39;45.57;97546.42;1779543;79;22768;-79
2021/04/12 04:53:34;;;;;;;21.37;11.10;;;;;;;10.52;45.09;97546.83;1740900;82;21097;-80
2021/04/12 04:56:37;;;;;;;22.02;11.40;;;;;;;10.87;44.98;97542.92;1743274;82;21128;-79
2021/04/12 04:59:30;;;;;;;24.57;10.98;;;;;;;11.08;44.71;97544.42;1737798;82;21120;-79
2021/04/12 05:02:51;;;;;;;23.92;12.33;;;;;;;11.22;44.38;97546.51;1739241;82;21105;-79
2021/04/12 05:05:36;;;;;;;21.95;12.55;;;;;;;11.29;44.33;97545.54;1724256;83;21124;-79
2021/04/12 05:08:49;;;;;;;57.48;32.73;;;;;;;11.39;44.08;97550.02;1734520;82;21167;-79
2021/04/12 05:11:28;;;;;;;39.10;27.32;;;;;;;11.35;43.65;97545.92;1696841;84;21148;-77
2021/04/12 05:14:40;;;;;;;41.95;27.35;;;;;;;11.55;43.41;97551.47;1687766;84;21192;-79
2021/04/12 05:17:59;;;;;;;22.05;13.40;;;;;;;12.21;43.19;97545.49;1789040;79;22928;-79
2021/04/12 05:21:04;;;;;;;22.17;12.05;;;;;;;12.45;42.60;97541.36;1766245;80;21188;-80
2021/04/12 05:24:03;;;;;;;27.37;13.83;;;;;;;12.70;42.23;97535.88;1772279;80;21541;-79
2021/04/12 05:27:05;;;;;;;21.23;12.10;;;;;;;13.18;40.72;97535.39;1754344;81;21290;-79
2021/04/12 05:30:13;;;;;;;21.40;11.05;;;;;;;13.41;41.14;97532.16;1725088;83;21736;-79
2021/04/12 05:33:27;;;;;;;30.35;12.13;;;;;;;13.94;40.90;97534.78;1717526;81;21136;-78
2021/04/12 05:36:21;;;;;;;27.20;10.23;;;;;;;14.52;40.22;97540.74;1723772;82;21142;-79
2021/04/12 05:39:03;;;;;;;30.48;10.28;;;;;;;14.95;39.07;97532.91;1735861;82;21152;-79
2021/04/12 05:41:39;;;;;;;23.83;9.10;;;;;;;15.34;38.37;97524.55;1735983;82;21171;-78
2021/04/12 05:44:36;;;;;;;23.42;10.53;;;;;;;15.78;38.05;97527.49;1717621;82;21648;-77
2021/04/12 05:47:18;;;;;;;21.10;9.90;;;;;;;16.13;37.69;97523.30;1725624;82;21166;-78
2021/04/12 05:50:14;;;;;;;18.77;7.33;;;;;;;16.48;35.65;97529.67;1710731;82;21943;-78
2021/04/12 05:53:28;;;;;;;15.48;8.68;;;;;;;16.79;34.99;97531.16;1725586;82;21190;-78
2021/04/12 05:56:18;;;;;;;14.40;8.35;;;;;;;16.65;34.61;97529.36;1715857;82;21247;-77
2021/04/12 05:59:14;;;;;;;16.02;6.15;;;;;;;16.79;34.16;97531.98;1713924;82;21127;-78
2021/04/12 06:01:49;;;;;;;14.20;7.47;;;;;;;16.81;33.68;97534.01;1721707;82;21160;-78
2021/04/12 06:04:28;;;;;;;23.10;9.20;;;;;;;16.63;32.54;97531.83;1720653;82;21135;-79
2021/04/12 06:07:18;;;;;;;18.15;8.60;;;;;;;16.69;33.27;97536.06;1722103;82;21227;-79
2021/04/12 06:10:09;;;;;;;16.62;7.92;;;;;;;17.09;33.09;97531.77;1720675;82;21151;-77
2021/04/12 06:12:54;;;;;;;12.93;6.58;;;;;;;17.26;32.93;97531.41;1722196;82;21163;-78
2021/04/12 06:15:49;;;;;;;10.70;5.70;;;;;;;17.50;32.09;97504.09;1707230;82;21157;-79
2021/04/12 06:18:45;;;;;;;19.37;7.67;;;;;;;17.41;31.17;97525.84;1693895;83;21594;-80
2021/04/12 06:21:39;;;;;;;16.60;8.10;;;;;;;16.83;31.64;97520.06;1697929;83;21168;-78
2021/04/12 06:24:54;;;;;;;17.80;8.28;;;;;;;16.67;31.61;97519.41;1698796;83;21210;-78
2021/04/12 06:27:43;;;;;;;18.50;8.83;;;;;;;16.82;32.31;97521.05;1764127;80;21157;-77
2021/04/12 06:30:56;;;;;;;24.02;8.23;;;;;;;16.97;31.47;97520.05;1758475;80;21141;-78
2021/04/12 06:33:44;;;;;;;21.93;6.97;;;;;;;17.08;32.43;97519.44;1751149;80;21592;-78
2021/04/12 06:36:40;;;;;;;23.02;8.10;;;;;;;17.16;32.00;97525.67;1774963;80;21144;-79
2021/04/12 06:39:41;;;;;;;25.02;9.10;;;;;;;17.28;31.64;97528.09;1763597;81;21116;-79
2021/04/12 06:42:31;;;;;;;28.25;6.67;;;;;;;17.22;31.94;97520.70;1756427;81;21613;-78
2021/04/12 06:45:40;;;;;;;36.15;9.15;;;;;;;17.47;31.36;97521.24;1753113;81;21593;-76
2021/04/12 06:48:28;;;;;;;27.13;8.70;;;;;;;17.33;31.52;97508.48;1721460;82;21546;-78
2021/04/12 06:51:44;;;;;;;16.07;5.78;;;;;;;17.50;31.51;97498.77;1778192;80;21136;-78
2021/04/12 06:54:37;;;;;;;22.02;8.05;;;;;;;17.73;31.21;97508.39;1768140;81;21141;-78
2021/04/12 06:57:34;;;;;;;14.38;6.90;;;;;;;17.52;30.53;97506.59;1711430;81;21109;-79
2021/04/12 07:00:16;;;;;;;21.35;8.70;;;;;;;17.43;30.67;97511.05;1775499;81;21542;-78
2021/04/12 07:02:58;;;;;;;17.82;9.20;;;;;;;17.55;31.09;97510.29;1763760;81;21145;-78
2021/04/12 07:06:01;;;;;;;19.30;8.53;;;;;;;17.76;30.94;97508.08;1755562;80;21152;-78
2021/04/12 07:08:44;;;;;;;18.60;8.63;;;;;;;17.55;30.22;97513.77;1749813;81;21136;-78
2021/04/12 07:11:22;;;;;;;21.70;9.53;;;;;;;17.53;30.84;97509.60;1716026;82;21132;-79
2021/04/12 07:14:09;;;;;;;31.20;11.38;;;;;;;17.46;30.91;97510.24;1749582;81;21122;-78
2021/04/12 07:17:28;;;;;;;19.30;7.45;;;;;;;17.59;30.63;97511.15;1749418;81;21541;-77
2021/04/12 07:20:28;;;;;;;15.63;6.17;;;;;;;17.69;30.49;97511.53;1748282;82;21566;-79
2021/04/12 07:23:30;;;;;;;16.55;8.30;;;;;;;17.43;30.39;97506.55;1746079;81;21267;-78
2021/04/12 07:26:38;;;;;;;19.05;10.50;;;;;;;17.21;30.88;97511.07;1761863;81;22400;-79
2021/04/12 07:29:36;;;;;;;24.12;10.58;;;;;;;17.14;31.24;97509.01;1759412;80;21141;-79
2021/04/12 07:32:43;;;;;;;24.12;10.15;;;;;;;17.46;30.63;97503.58;1748549;80;21159;-79
2021/04/12 07:35:31;;;;;;;18.10;9.43;;;;;;;17.39;30.36;97500.36;1742018;80;21140;-80
2021/04/12 07:38:23;;;;;;;20.85;9.33;;;;;;;17.08;30.59;97498.98;1773330;81;21191;-81
2021/04/12 07:41:16;;;;;;;19.85;9.58;;;;;;;17.39;31.19;97494.55;1772579;79;21148;-78
2021/04/12 07:44:10;;;;;;;20.25;9.03;;;;;;;17.49;30.60;97493.92;1757327;81;21157;-78
2021/04/12 07:47:21;;;;;;;17.50;6.92;;;;;;;17.63;30.65;97491.67;1777402;81;21291;-78
2021/04/12 07:50:15;;;;;;;21.62;10.28;;;;;;;17.89;30.62;97489.45;1773398;81;21258;-79
2021/04/12 07:53:21;;;;;;;21.35;9.63;;;;;;;17.90;30.72;97485.32;1766405;81;21140;-77
2021/04/12 07:56:15;;;;;;;16.60;8.70;;;;;;;17.80;30.73;97473.94;1756180;81;21097;-77
2021/04/12 07:59:14;;;;;;;21.17;9.70;;;;;;;17.96;31.03;97485.18;1671232;85;21184;-78
2021/04/12 08:02:14;;;;;;;19.73;10.65;;;;;;;18.04;31.13;97481.23;1676934;84;21265;-77
2021/04/12 08:05:33;;;;;;;10.93;6.95;;;;;;;18.01;31.37;97489.55;1652970;85;22362;-78
2021/04/12 08:08:28;;;;;;;22.58;10.78;;;;;;;17.97;31.26;97480.19;1665976;85;21628;-78
2021/04/12 08:11:34;;;;;;;21.50;7.92;;;;;;;18.01;31.65;97478.88;1659408;85;21698;-79
2021/04/12 08:14:27;;;;;;;17.50;8.93;;;;;;;18.21;31.28;97479.44;1644825;85;21137;-77
2021/04/12 08:17:19;;;;;;;17.35;6.20;;;;;;;17.99;31.45;97479.53;1674809;85;21132;-79
2021/04/12 08:20:27;;;;;;;14.15;7.30;;;;;;;18.09;31.48;97474.09;1669558;85;21674;-79
2021/04/12 08:23:46;;;;;;;16.10;8.43;;;;;;;18.02;31.60;97475.22;1671432;85;21202;-80
2021/04/12 08:26:47;;;;;;;15.30;7.95;;;;;;;17.97;31.63;97466.03;1672284;85;21687;-79
2021/04/12 08:30:03;;;;;;;15.53;8.38;;;;;;;18.02;31.18;97459.70;1668735;85;21208;-78
2021/04/12 08:33:20;;;;;;;14.10;6.08;;;;;;;18.04;31.04;97461.72;1849206;76;27744;-80
2021/04/12 08:36:41;;;;;;;16.97;7.22;;;;;;;17.97;30.95;97455.37;1815799;78;21117;-79
2021/04/12 08:39:34;;;;;;;14.10;5.53;;;;;;;17.83;31.06;97456.78;1817669;77;21536;-79
2021/04/12 08:42:39;;;;;;;9.95;5.35;;;;;;;18.01;30.84;97452.69;1829116;77;21582;-79
2021/04/12 08:45:17;;;;;;;9.98;5.97;;;;;;;18.16;30.01;97447.58;1795567;78;21127;-79
2021/04/12 08:48:12;;;;;;;9.95;4.60;;;;;;;18.21;29.80;97445.27;1765415;77;21572;-79
2021/04/12 08:51:14;;;;;;;11.90;4.97;;;;;;;18.14;29.22;97436.26;1810143;78;21165;-79
2021/04/12 08:54:21;;;;;;;14.95;6.35;;;;;;;18.13;29.25;97430.58;1796819;80;21523;-78
2021/04/12 08:57:07;;;;;;;;;;;;;;;18.26;28.82;97424.26;1821554;77;21134;-78
2021/04/12 09:00:09;;;;;;;10.72;4.28;;;;;;;18.42;28.67;97414.94;1807464;77;20220;-80
2021/04/12 09:03:20;;;;;;;15.63;5.37;;;;;;;18.55;27.22;97412.28;1788038;79;21139;-79
2021/04/12 09:06:27;;;;;;;13.08;6.17;;;;;;;18.72;27.32;97412.61;1672820;84;21152;-78
2021/04/12 09:09:15;;;;;;;7.80;5.03;;;;;;;18.90;26.66;97411.59;1750679;81;21164;-77
2021/04/12 09:12:17;;;;;;;12.18;6.15;;;;;;;19.06;26.35;97409.96;1753593;81;21191;-79
2021/04/12 09:15:27;;;;;;;10.78;5.60;;;;;;;19.03;24.52;97408.44;1755894;79;21164;-80
2021/04/12 09:18:08;;;;;;;9.73;5.05;;;;;;;19.00;24.47;97402.13;1773272;81;21160;-79
2021/04/12 09:21:20;;;;;;;9.03;4.80;;;;;;;19.04;24.07;97412.30;1744721;80;21156;-80
2021/04/12 09:24:17;;;;;;;8.23;5.33;;;;;;;18.88;22.80;97401.61;1743817;82;21654;-80
2021/04/12 09:27:20;;;;;;;12.33;6.50;;;;;;;19.01;24.45;97403.28;1743858;82;21121;-81
2021/04/12 09:30:32;;;;;;;12.53;6.37;;;;;;;19.17;24.39;97401.56;1743724;82;21153;-80
2021/04/12 09:33:49;;;;;;;8.08;5.67;;;;;;;19.05;23.40;97399.77;1743712;82;21160;-80
2021/04/12 09:36:31;;;;;;;7.53;4.83;;;;;;;18.99;23.36;97391.92;1743912;82;21654;-80
2021/04/12 09:39:38;;;;;;;9.18;4.97;;;;;;;19.00;24.41;97384.77;1743973;82;21184;-80
2021/04/12 09:42:43;;;;;;;12.03;6.10;;;;;;;18.91;23.70;97393.75;1744051;82;21117;-80
2021/04/12 09:45:42;;;;;;;10.63;4.22;;;;;;;18.79;24.06;97390.61;1743259;82;21152;-80
2021/04/12 09:48:55;;;;;;;12.98;5.10;;;;;;;18.83;24.40;97390.58;1742194;82;21195;-79
2021/04/12 09:51:53;;;;;;;8.90;5.40;;;;;;;18.82;23.84;97382.23;1743562;82;21159;-80
2021/04/12 09:54:43;;;;;;;15.10;5.20;;;;;;;18.84;24.17;97377.05;1743565;82;21153;-79
2021/04/12 09:57:38;;;;;;;11.78;5.58;;;;;;;18.98;24.40;97378.23;1743219;82;21244;-80
2021/04/12 10:00:41;;;;;;;6.62;4.58;;;;;;;18.95;23.34;97385.27;1743311;82;21148;-80
2021/04/12 10:03:50;;;;;;;8.85;5.33;;;;;;;18.97;24.15;97369.91;1743427;82;21649;-80
2021/04/12 10:06:45;;;;;;;13.13;5.53;;;;;;;18.98;23.91;97366.73;1671318;82;21129;-79
2021/04/12 10:09:21;;;;;;;8.55;4.75;;;;;;;19.04;23.97;97366.89;1743277;82;21164;-80
2021/04/12 10:11:54;;;;;;;8.98;5.08;;;;;;;19.16;24.21;97358.00;1743128;82;21149;-78
2021/04/12 10:14:29;;;;;;;9.43;4.97;;;;;;;19.25;24.11;97352.14;1717862;82;21176;-80
2021/04/12 10:17:14;;;;;;;11.93;5.97;;;;;;;19.29;23.99;97349.95;1759869;79;21135;-79
2021/04/12 10:19:49;;;;;;;7.20;4.30;;;;;;;19.25;22.82;97342.79;1773750;80;21157;-80
2021/04/12 10:22:22;;;;;;;8.85;5.20;;;;;;;19.24;23.68;97343.80;1772880;81;21282;-81
2021/04/12 10:25:02;;;;;;;9.60;6.17;;;;;;;19.18;23.81;97344.46;1773499;81;21269;-80
2021/04/12 10:27:42;;;;;;;10.80;5.42;;;;;;;19.17;24.29;97337.45;1770913;79;21121;-79
2021/04/12 10:30:32;;;;;;;6.05;4.00;;;;;;;19.27;24.38;97336.75;1764195;80;21154;-79
2021/04/12 10:33:03;;;;;;;10.48;5.40;;;;;;;19.34;24.21;97335.08;1734029;81;21198;-79
2021/04/12 10:35:48;;;;;;;12.78;5.75;;;;;;;19.30;23.65;97335.08;1741287;80;21575;-80
2021/04/12 10:38:30;;;;;;;9.45;4.00;;;;;;;19.22;23.84;97332.44;1803245;77;21116;-78
2021/04/12 10:41:14;;;;;;;11.90;5.60;;;;;;;19.27;23.89;97327.39;1809425;77;21114;-79
2021/04/12 10:44:18;;;;;;;7.60;4.62;;;;;;;19.31;24.03;97328.73;1776447;79;21092;-79
2021/04/12 10:47:01;;;;;;;19.30;5.53;;;;;;;19.29;23.84;97320.56;1785497;77;21183;-80
2021/04/12 10:50:07;;;;;;;11.45;5.00;;;;;;;19.22;23.08;97323.09;1769406;78;21598;-78
2021/04/12 10:53:24;;;;;;;10.10;5.55;;;;;;;19.27;23.80;97324.72;1818315;79;21562;-79
2021/04/12 10:56:13;;;;;;;10.63;5.50;;;;;;;19.38;23.45;97327.54;1799521;78;21129;-78
2021/04/12 10:59:21;;;;;;;12.07;6.10;;;;;;;19.50;23.69;97326.13;1787018;80;21178;-79
2021/04/12 11:02:11;;;;;;;;;;;;;;;19.59;23.24;97322.07;1762299;80;21137;-79
2021/04/12 11:05:11;;;;;;;7.50;4.90;;;;;;;19.61;23.66;97319.58;1794009;79;20175;-80
2021/04/12 11:07:53;;;;;;;12.10;5.50;;;;;;;19.69;23.60;97317.34;1806889;77;21135;-76
2021/04/12 11:11:02;;;;;;;14.03;5.40;;;;;;;19.75;23.57;97307.78;1777753;80;21125;-79
2021/04/12 11:13:56;;;;;;;9.25;4.42;;;;;;;19.77;23.60;97310.61;1716989;83;21177;-80
2021/04/12 11:16:54;;;;;;;9.80;5.58;;;;;;;19.87;24.07;97297.05;1722654;81;21142;-77
2021/04/12 11:19:30;;;;;;;8.40;4.90;;;;;;;20.03;24.33;97303.29;1728492;81;21648;-80
2021/04/12 11:22:18;;;;;;;;;;;;;;;20.23;24.22;97298.30;1807663;79;21308;-79
2021/04/12 11:25:07;;;;;;;;;;;;;;;20.15;23.21;97295.67;1784811;80;20199;-78
2021/04/12 11:28:06;;;;;;;11.88;5.25;;;;;;;20.22;23.51;97292.63;1746383;82;20438;-79
2021/04/12 11:30:59;;;;;;;13.05;5.60;;;;;;;20.21;23.76;97281.59;1736860;82;21175;-78
2021/04/12 11:33:41;;;;;;;11.57;4.62;;;;;;;20.19;23.78;97275.06;1777192;81;21162;-79
2021/04/12 11:36:44;;;;;;;6.92;4.45;;;;;;;20.30;23.38;97276.50;1746107;82;21146;-80
2021/04/12 11:39:23;;;;;;;13.38;5.00;;;;;;;20.36;24.03;97269.59;1747746;82;21156;-78
2021/04/12 11:42:00;;;;;;;11.18;5.50;;;;;;;20.42;24.12;97268.85;1716927;83;21588;-79
2021/04/12 11:45:00;;;;;;;8.00;4.78;;;;;;;20.52;24.32;97264.56;1702830;84;21170;-79
2021/04/12 11:47:54;;;;;;;10.48;4.70;;;;;;;20.58;24.17;97261.99;1788467;79;21127;-78
2021/04/12 11:50:50;;;;;;;8.98;4.22;;;;;;;20.64;24.18;97258.28;1787768;80;21216;-79
2021/04/12 11:53:38;;;;;;;11.65;5.20;;;;;;;20.70;23.97;97258.87;1787799;80;21127;-79
2021/04/12 11:56:30;;;;;;;10.43;4.78;;;;;;;20.75;23.47;97251.98;1807007;78;21087;-79
2021/04/12 11:59:48;;;;;;;19.17;5.33;;;;;;;20.83;24.20;97248.88;1825645;78;21139;-80
2021/04/12 12:02:42;;;;;;;8.20;4.90;;;;;;;20.89;24.12;97234.25;1825583;78;21119;-79
2021/04/12 12:05:32;;;;;;;11.78;5.12;;;;;;;20.97;23.96;97225.78;1805387;78;21154;-80
2021/04/12 12:08:08;;;;;;;8.35;4.65;;;;;;;21.00;23.84;97222.73;1796831;79;21558;-79
2021/04/12 12:10:53;;;;;;;11.33;4.70;;;;;;;21.08;23.86;97217.77;1819721;79;21106;-80
2021/04/12 12:13:45;;;;;;;;;;;;;;;21.18;23.24;97212.95;1826683;77;23038;-79
2021/04/12 12:16:29;;;;;;;6.08;2.95;;;;;;;21.10;23.24;97210.38;1827725;78;20168;-81
2021/04/12 12:19:19;;;;;;;9.05;4.30;;;;;;;21.04;23.02;97208.78;1827853;78;21127;-79
2021/04/12 12:22:10;;;;;;;10.00;5.03;;;;;;;20.97;23.23;97207.88;1827799;78;21131;-80
2021/04/12 12:25:05;;;;;;;8.58;4.95;;;;;;;20.92;23.24;97199.55;1790340;80;21177;-81
2021/04/12 12:27:41;;;;;;;14.07;5.37;;;;;;;20.93;23.20;97209.77;1739812;82;21173;-80
2021/04/12 12:30:19;;;;;;;12.28;5.22;;;;;;;20.86;22.80;97197.63;1713106;82;21184;-80
2021/04/12 12:33:18;;;;;;;15.10;4.75;;;;;;;20.83;22.84;97201.52;1738840;82;21237;-80
2021/04/12 12:36:09;;;;;;;8.13;4.50;;;;;;;20.86;23.33;97193.61;1736700;83;21580;-79
2021/04/12 12:39:00;;;;;;;11.10;4.33;;;;;;;20.83;23.12;97197.98;1747389;81;21195;-82
2021/04/12 12:41:32;;;;;;;9.10;4.10;;;;;;;20.78;23.24;97193.19;1725084;82;21139;-81
2021/04/12 12:44:06;;;;;;;9.53;4.72;;;;;;;20.78;22.91;97215.95;1714043;82;21203;-78
2021/04/12 12:46:37;;;;;;;10.18;4.30;;;;;;;20.71;23.24;97190.38;1739804;82;21167;-80
2021/04/12 12:49:26;;;;;;;7.67;4.85;;;;;;;20.78;23.09;97190.52;1739924;82;21171;-81
2021/04/12 12:51:58;;;;;;;10.28;4.03;;;;;;;20.70;23.03;97175.33;1739769;82;21286;-81
2021/04/12 12:54:46;;;;;;;9.25;3.65;;;;;;;20.73;22.97;97172.81;1740193;82;21150;-81
2021/04/12 12:57:36;;;;;;;10.32;4.70;;;;;;;20.73;22.99;97178.17;1739776;82;21585;-80
2021/04/12 13:00:39;;;;;;;6.17;3.20;;;;;;;20.77;23.06;97167.94;1661384;86;21173;-81
2021/04/12 13:03:29;;;;;;;6.78;3.60;;;;;;;20.75;22.75;97189.04;1661475;86;21628;-81
2021/04/12 13:06:02;;;;;;;7.83;4.10;;;;;;;20.63;23.03;97165.05;1661422;86;21220;-80
2021/04/12 13:08:55;;;;;;;;;;;;;;;20.61;23.01;97159.03;1851777;77;22993;-80
2021/04/12 13:11:40;;;;;;;9.88;4.47;;;;;;;20.62;23.26;97163.91;1784828;80;20172;-78
2021/04/12 13:14:34;;;;;;;12.63;4.00;;;;;;;20.70;23.46;97151.23;1762810;80;21756;-79
2021/04/12 13:17:33;;;;;;;5.78;3.00;;;;;;;20.80;23.38;97153.66;1790084;80;21755;-80
2021/04/12 13:20:11;;;;;;;12.10;4.53;;;;;;;20.84;22.97;97158.95;1776254;80;21127;-81
2021/04/12 13:22:43;;;;;;;8.73;3.95;;;;;;;20.73;22.99;97158.93;1760855;81;21143;-80
2021/04/12 13:25:31;;;;;;;8.55;4.45;;;;;;;20.70;23.17;97157.92;1760636;81;21553;-81
2021/04/12 13:28:03;;;;;;;11.73;4.90;;;;;;;20.73;22.98;97156.74;1790761;80;21548;-79
2021/04/12 13:30:35;;;;;;;16.95;4.85;;;;;;;20.68;22.85;97162.66;1791273;80;21159;-81
2021/04/12 13:33:16;;;;;;;14.87;5.12;;;;;;;20.72;23.25;97147.05;1803510;79;21169;-81
2021/04/12 13:35:45;;;;;;;12.15;4.30;;;;;;;20.79;23.35;97148.51;1796020;79;21142;-80